x

Devils Island, Wi (disw3) Weather Station

6:00am - Sat 23rd May 2015 All times are CDT. -5 hours from GMT.

  • Wind
    18mph, 20mph gusts
  • Air Temp 50°f
  • Sea Pressure 1022.7mb
  • Devils Island, Wi
  • Devils Island, Wi

More Historic Weather Station data

Upgrade to MSW Pro to gain access to the past 30 days of data for over 8000 Wavebouys and Weather Stations around the globe.

Join Pro

Comparision Forecast

View Surf forecast
   
Sat 05/23 6:00am 18 20 mph 1022.7mb 50f
5:00am 21 22 mph 1022.3mb 48f
4:00am 15 17 mph 1022.3mb 44f
3:00am 14 16 mph 1022.3mb 42f
2:00am 11 14 mph 1022.2mb 40f
1:00am 11 14 mph 1022.2mb 42f
12:00am 9
mph
1022.2mb 42f
Fri 05/22 11:00pm 2
mph
1022.3mb 42f
10:00pm 6 8 mph 1022.4mb 41f
9:00pm 8 9 mph 1022mb 41f
8:00pm 7 8 mph 1021.7mb 43f
7:00pm 6 7 mph 1022.1mb 45f
6:00pm 6 7 mph 1022.7mb 43f
5:00pm 5 6 mph 1023.2mb 46f
4:00pm 6 7 mph 1023.5mb 44f
3:00pm 3 5 mph 1023.7mb 47f
2:00pm 5 6 mph 1023.9mb 50f
1:00pm 5 6 mph 1024.2mb 43f
12:00pm 7
mph
1024.6mb 42f
11:00am 5 6 mph 1024.7mb 41f
10:00am 3
mph
1024.8mb 41f
9:00am 5
mph
1024.5mb 40f
8:00am 2 3 mph 1023.9mb 41f
7:00am 3 5 mph 1023.4mb 40f
6:00am 5
mph
1022.8mb 40f
5:00am 6 7 mph 1022.2mb 39f
4:00am 7 8 mph 1021.5mb 40f
3:00am 3
mph
1020.8mb 41f
2:00am 3 5 mph 1020.3mb 44f
1:00am 10
mph
1019.8mb 46f
12:00am 17
mph
1018.9mb 55f
Thu 05/21 11:00pm 11 13 mph 1018.6mb 55f
10:00pm 2 3 mph 1018.2mb 53f
9:00pm 2 3 mph 1017.4mb 54f
8:00pm  -  mph 1016.7mb 59f
7:00pm  -  2 mph 1016.5mb 52f
6:00pm 3 6 mph 1016.5mb 56f
5:00pm 5 6 mph 1016.6mb 57f
4:00pm  -  1 mph 1016.6mb 57f
3:00pm 1 2 mph 1016.8mb 54f
2:00pm 9 11 mph 1016.8mb 54f
1:00pm 9 13 mph 1016.9mb 55f
12:00pm 11 13 mph 1017.1mb 49f
11:00am 7 8 mph 1017.3mb 45f
10:00am 5 6 mph 1017.1mb 44f
9:00am 8 9 mph 1016.7mb 45f
8:00am 16
mph
1015.9mb 45f
7:00am 13 14 mph 1015mb 46f
6:00am 16 18 mph 1014mb 47f
5:00am 20 22 mph 1013.4mb 50f
4:00am 20 22 mph 1013.2mb 50f
3:00am 22 24 mph 1013.4mb 50f
2:00am 22 24 mph 1013.9mb 51f
1:00am 23 25 mph 1014.6mb 51f
12:00am 22 24 mph 1015mb 52f
Wed 05/20 11:00pm 21 22 mph 1015.3mb 55f
10:00pm 13 15 mph 1015.7mb 56f
9:00pm 11 14 mph 1016mb 52f
8:00pm 16 17 mph 1016.1mb 56f
7:00pm 16 17 mph 1016.6mb 54f
6:00pm 15 17 mph 1017.5mb 54f
5:00pm 16 17 mph 1018.4mb 53f
4:00pm 14 17 mph 1019.3mb 54f
3:00pm 14 17 mph 1020.1mb 52f
2:00pm 10 14 mph 1020.9mb 53f
1:00pm 14 17 mph 1022mb 52f
12:00pm 6 10 mph 1022.5mb 50f
11:00am 16 17 mph 1023.1mb 46f
10:00am 13 15 mph 1023.5mb 42f
9:00am 14 16 mph 1023.7mb 42f
8:00am 14 16 mph 1023.6mb 42f
7:00am 10 11 mph 1023.5mb 41f
6:00am 13 14 mph 1023.2mb 41f
5:00am 10
mph
1022.9mb 41f
4:00am 10 11 mph 1023.4mb 43f
3:00am 9 10 mph 1023.6mb 44f
2:00am 9
mph
1023.8mb 46f
1:00am 8 9 mph 1023.8mb 49f
12:00am 9 10 mph 1024.1mb 49f
Tue 05/19 11:00pm 10
mph
1024.2mb 50f
10:00pm 9 10 mph 1024.5mb 49f
9:00pm 7 8 mph 1024.2mb 49f
8:00pm 6
mph
1024mb 49f
7:00pm 6 7 mph 1024mb 49f
6:00pm 5 7 mph 1024mb 47f
5:00pm 7 9 mph 1024.3mb 46f
4:00pm 6 9 mph 1025mb 45f
3:00pm 8 10 mph 1025.9mb 44f
2:00pm 6 9 mph 1026.5mb 45f
1:00pm 11 16 mph 1028.1mb 42f